sensor_id;sensor_type;location;lat;lon;timestamp;P1;durP1;ratioP1;P2;durP2;ratioP2
64615;SDS011;51027;42.162;24.754;2022-10-31T00:02:30;9.30;;;3.35;;
64615;SDS011;51027;42.162;24.754;2022-10-31T00:05:55;10.48;;;3.45;;
64615;SDS011;51027;42.162;24.754;2022-10-31T00:15:09;7.55;;;3.10;;
64615;SDS011;51027;42.162;24.754;2022-10-31T00:24:28;9.63;;;3.03;;
64615;SDS011;51027;42.162;24.754;2022-10-31T00:41:25;10.00;;;3.10;;
64615;SDS011;51027;42.162;24.754;2022-10-31T00:55:35;9.68;;;3.83;;
64615;SDS011;51027;42.162;24.754;2022-10-31T01:08:23;13.05;;;3.28;;
64615;SDS011;51027;42.162;24.754;2022-10-31T01:18:26;7.72;;;2.88;;
64615;SDS011;51027;42.162;24.754;2022-10-31T01:25:02;11.55;;;3.00;;
64615;SDS011;51027;42.162;24.754;2022-10-31T01:32:13;10.75;;;3.60;;
64615;SDS011;51027;42.162;24.754;2022-10-31T01:39:02;13.20;;;2.90;;
64615;SDS011;51027;42.162;24.754;2022-10-31T01:45:41;11.55;;;3.08;;
64615;SDS011;51027;42.162;24.754;2022-10-31T02:40:16;7.68;;;2.88;;
64615;SDS011;51027;42.162;24.754;2022-10-31T02:42:51;10.32;;;2.90;;
64615;SDS011;51027;42.162;24.754;2022-10-31T02:45:50;10.07;;;2.83;;
64615;SDS011;51027;42.162;24.754;2022-10-31T02:48:19;7.28;;;2.83;;
64615;SDS011;51027;42.162;24.754;2022-10-31T02:50:50;9.50;;;3.00;;
64615;SDS011;51027;42.162;24.754;2022-10-31T02:53:20;11.75;;;3.22;;
64615;SDS011;51027;42.162;24.754;2022-10-31T02:55:50;12.48;;;3.65;;
64615;SDS011;51027;42.162;24.754;2022-10-31T02:58:24;8.68;;;2.88;;
64615;SDS011;51027;42.162;24.754;2022-10-31T03:03:36;8.15;;;2.92;;
64615;SDS011;51027;42.162;24.754;2022-10-31T03:06:29;5.07;;;2.72;;
64615;SDS011;51027;42.162;24.754;2022-10-31T03:09:03;11.27;;;3.38;;
64615;SDS011;51027;42.162;24.754;2022-10-31T03:12:02;9.18;;;3.15;;
64615;SDS011;51027;42.162;24.754;2022-10-31T03:14:44;10.45;;;3.25;;
64615;SDS011;51027;42.162;24.754;2022-10-31T03:17:41;10.40;;;3.20;;
64615;SDS011;51027;42.162;24.754;2022-10-31T03:20:34;9.43;;;3.30;;
64615;SDS011;51027;42.162;24.754;2022-10-31T03:23:06;12.30;;;3.30;;
64615;SDS011;51027;42.162;24.754;2022-10-31T03:25:35;8.93;;;2.80;;
64615;SDS011;51027;42.162;24.754;2022-10-31T03:28:02;7.43;;;2.50;;
64615;SDS011;51027;42.162;24.754;2022-10-31T03:30:31;10.45;;;3.03;;
64615;SDS011;51027;42.162;24.754;2022-10-31T03:35:27;8.20;;;3.08;;
64615;SDS011;51027;42.162;24.754;2022-10-31T03:37:54;6.85;;;2.85;;
64615;SDS011;51027;42.162;24.754;2022-10-31T03:40:21;8.07;;;3.10;;
64615;SDS011;51027;42.162;24.754;2022-10-31T03:42:58;8.90;;;3.13;;
64615;SDS011;51027;42.162;24.754;2022-10-31T03:45:28;9.32;;;3.60;;
64615;SDS011;51027;42.162;24.754;2022-10-31T03:47:55;13.77;;;3.22;;
64615;SDS011;51027;42.162;24.754;2022-10-31T03:50:23;10.80;;;3.35;;
64615;SDS011;51027;42.162;24.754;2022-10-31T03:52:55;8.70;;;3.17;;
64615;SDS011;51027;42.162;24.754;2022-10-31T03:55:32;9.50;;;2.85;;
64615;SDS011;51027;42.162;24.754;2022-10-31T04:00:33;11.68;;;3.53;;
64615;SDS011;51027;42.162;24.754;2022-10-31T04:05:32;12.65;;;3.47;;
64615;SDS011;51027;42.162;24.754;2022-10-31T04:07:59;9.68;;;3.10;;
64615;SDS011;51027;42.162;24.754;2022-10-31T04:10:27;11.13;;;3.22;;
64615;SDS011;51027;42.162;24.754;2022-10-31T04:12:58;10.93;;;3.30;;
64615;SDS011;51027;42.162;24.754;2022-10-31T04:15:28;11.15;;;3.25;;
64615;SDS011;51027;42.162;24.754;2022-10-31T04:17:57;11.15;;;3.22;;
64615;SDS011;51027;42.162;24.754;2022-10-31T04:20:34;9.40;;;3.20;;
64615;SDS011;51027;42.162;24.754;2022-10-31T04:23:02;11.68;;;3.28;;
64615;SDS011;51027;42.162;24.754;2022-10-31T04:25:28;9.32;;;3.30;;
64615;SDS011;51027;42.162;24.754;2022-10-31T04:27:54;10.35;;;3.53;;
64615;SDS011;51027;42.162;24.754;2022-10-31T04:30:19;9.45;;;3.35;;
64615;SDS011;51027;42.162;24.754;2022-10-31T04:32:45;9.35;;;3.00;;
64615;SDS011;51027;42.162;24.754;2022-10-31T04:35:10;12.52;;;3.42;;
64615;SDS011;51027;42.162;24.754;2022-10-31T04:37:36;8.65;;;3.10;;
64615;SDS011;51027;42.162;24.754;2022-10-31T04:40:01;11.48;;;4.10;;
64615;SDS011;51027;42.162;24.754;2022-10-31T04:42:30;10.52;;;3.20;;
64615;SDS011;51027;42.162;24.754;2022-10-31T04:44:56;11.18;;;3.60;;
64615;SDS011;51027;42.162;24.754;2022-10-31T04:47:21;8.35;;;3.10;;
64615;SDS011;51027;42.162;24.754;2022-10-31T04:49:47;12.02;;;3.65;;
64615;SDS011;51027;42.162;24.754;2022-10-31T04:52:12;8.63;;;2.97;;
64615;SDS011;51027;42.162;24.754;2022-10-31T04:54:38;10.00;;;3.33;;
64615;SDS011;51027;42.162;24.754;2022-10-31T04:57:03;13.98;;;3.55;;
64615;SDS011;51027;42.162;24.754;2022-10-31T04:59:29;11.57;;;3.92;;
64615;SDS011;51027;42.162;24.754;2022-10-31T05:01:54;8.90;;;3.47;;
64615;SDS011;51027;42.162;24.754;2022-10-31T05:04:20;11.10;;;3.45;;
64615;SDS011;51027;42.162;24.754;2022-10-31T05:06:45;13.18;;;3.35;;
64615;SDS011;51027;42.162;24.754;2022-10-31T05:09:11;11.50;;;3.88;;
64615;SDS011;51027;42.162;24.754;2022-10-31T05:11:36;11.82;;;3.53;;
64615;SDS011;51027;42.162;24.754;2022-10-31T05:14:02;12.20;;;3.08;;
64615;SDS011;51027;42.162;24.754;2022-10-31T05:16:27;12.63;;;3.85;;
64615;SDS011;51027;42.162;24.754;2022-10-31T05:18:53;11.13;;;3.70;;
64615;SDS011;51027;42.162;24.754;2022-10-31T05:21:18;13.57;;;3.58;;
64615;SDS011;51027;42.162;24.754;2022-10-31T05:23:44;11.88;;;3.40;;
64615;SDS011;51027;42.162;24.754;2022-10-31T05:26:09;11.25;;;3.17;;
64615;SDS011;51027;42.162;24.754;2022-10-31T05:28:34;11.02;;;3.38;;
64615;SDS011;51027;42.162;24.754;2022-10-31T05:31:00;11.07;;;3.45;;
64615;SDS011;51027;42.162;24.754;2022-10-31T05:33:25;10.35;;;3.33;;
64615;SDS011;51027;42.162;24.754;2022-10-31T05:35:51;12.20;;;3.47;;
64615;SDS011;51027;42.162;24.754;2022-10-31T05:38:16;12.77;;;3.50;;
64615;SDS011;51027;42.162;24.754;2022-10-31T05:40:41;10.93;;;3.33;;
64615;SDS011;51027;42.162;24.754;2022-10-31T05:43:07;10.82;;;3.28;;
64615;SDS011;51027;42.162;24.754;2022-10-31T05:45:32;10.98;;;3.40;;
64615;SDS011;51027;42.162;24.754;2022-10-31T05:47:58;9.68;;;3.13;;
64615;SDS011;51027;42.162;24.754;2022-10-31T05:50:27;9.13;;;3.53;;
64615;SDS011;51027;42.162;24.754;2022-10-31T05:53:00;12.15;;;3.13;;
64615;SDS011;51027;42.162;24.754;2022-10-31T05:55:28;9.43;;;3.38;;
64615;SDS011;51027;42.162;24.754;2022-10-31T05:57:54;10.45;;;4.22;;
64615;SDS011;51027;42.162;24.754;2022-10-31T06:00:20;10.57;;;3.55;;
64615;SDS011;51027;42.162;24.754;2022-10-31T06:02:47;9.80;;;3.13;;
64615;SDS011;51027;42.162;24.754;2022-10-31T06:05:13;9.10;;;3.35;;
64615;SDS011;51027;42.162;24.754;2022-10-31T06:07:39;12.23;;;3.75;;
64615;SDS011;51027;42.162;24.754;2022-10-31T06:10:05;13.18;;;3.80;;
64615;SDS011;51027;42.162;24.754;2022-10-31T06:12:32;9.00;;;3.17;;
64615;SDS011;51027;42.162;24.754;2022-10-31T06:15:03;11.77;;;3.60;;
64615;SDS011;51027;42.162;24.754;2022-10-31T06:17:30;7.90;;;2.92;;
64615;SDS011;51027;42.162;24.754;2022-10-31T06:19:56;12.55;;;3.53;;
64615;SDS011;51027;42.162;24.754;2022-10-31T06:22:21;10.68;;;3.75;;
64615;SDS011;51027;42.162;24.754;2022-10-31T06:24:47;10.80;;;4.05;;
64615;SDS011;51027;42.162;24.754;2022-10-31T06:27:12;11.68;;;3.70;;
64615;SDS011;51027;42.162;24.754;2022-10-31T06:29:38;14.57;;;3.72;;
64615;SDS011;51027;42.162;24.754;2022-10-31T06:32:03;9.95;;;3.20;;
64615;SDS011;51027;42.162;24.754;2022-10-31T06:34:29;13.63;;;3.80;;
64615;SDS011;51027;42.162;24.754;2022-10-31T06:36:54;11.30;;;3.28;;
64615;SDS011;51027;42.162;24.754;2022-10-31T06:39:20;12.07;;;3.50;;
64615;SDS011;51027;42.162;24.754;2022-10-31T06:41:46;8.50;;;3.10;;
64615;SDS011;51027;42.162;24.754;2022-10-31T06:44:12;9.02;;;3.10;;
64615;SDS011;51027;42.162;24.754;2022-10-31T06:46:38;10.85;;;3.40;;
64615;SDS011;51027;42.162;24.754;2022-10-31T06:49:03;11.68;;;3.30;;
64615;SDS011;51027;42.162;24.754;2022-10-31T06:51:29;11.27;;;3.83;;
64615;SDS011;51027;42.162;24.754;2022-10-31T06:53:54;9.07;;;2.85;;
64615;SDS011;51027;42.162;24.754;2022-10-31T06:56:19;11.85;;;4.43;;
64615;SDS011;51027;42.162;24.754;2022-10-31T06:58:45;20.20;;;8.60;;
64615;SDS011;51027;42.162;24.754;2022-10-31T07:01:10;12.82;;;3.40;;
64615;SDS011;51027;42.162;24.754;2022-10-31T07:03:35;11.45;;;3.58;;
64615;SDS011;51027;42.162;24.754;2022-10-31T07:06:01;11.05;;;3.33;;
64615;SDS011;51027;42.162;24.754;2022-10-31T07:08:26;10.40;;;3.25;;
64615;SDS011;51027;42.162;24.754;2022-10-31T07:10:53;13.27;;;3.78;;
64615;SDS011;51027;42.162;24.754;2022-10-31T07:13:20;9.48;;;3.10;;
64615;SDS011;51027;42.162;24.754;2022-10-31T07:15:50;12.07;;;3.33;;
64615;SDS011;51027;42.162;24.754;2022-10-31T07:18:17;9.25;;;3.00;;
64615;SDS011;51027;42.162;24.754;2022-10-31T07:20:42;5.75;;;2.72;;
64615;SDS011;51027;42.162;24.754;2022-10-31T07:23:10;10.90;;;3.03;;
64615;SDS011;51027;42.162;24.754;2022-10-31T07:25:39;11.80;;;3.80;;
64615;SDS011;51027;42.162;24.754;2022-10-31T07:28:06;11.60;;;3.58;;
64615;SDS011;51027;42.162;24.754;2022-10-31T07:30:32;10.40;;;3.30;;
64615;SDS011;51027;42.162;24.754;2022-10-31T07:32:57;9.27;;;3.00;;
64615;SDS011;51027;42.162;24.754;2022-10-31T07:35:24;9.30;;;3.03;;
64615;SDS011;51027;42.162;24.754;2022-10-31T07:37:52;12.43;;;3.00;;
64615;SDS011;51027;42.162;24.754;2022-10-31T07:40:18;8.70;;;3.25;;
64615;SDS011;51027;42.162;24.754;2022-10-31T07:42:45;10.32;;;3.50;;
64615;SDS011;51027;42.162;24.754;2022-10-31T07:45:13;12.15;;;4.47;;
64615;SDS011;51027;42.162;24.754;2022-10-31T07:47:44;12.95;;;3.65;;
64615;SDS011;51027;42.162;24.754;2022-10-31T07:50:18;9.77;;;3.17;;
64615;SDS011;51027;42.162;24.754;2022-10-31T07:52:45;11.13;;;3.50;;
64615;SDS011;51027;42.162;24.754;2022-10-31T07:55:11;11.13;;;3.55;;
64615;SDS011;51027;42.162;24.754;2022-10-31T07:57:36;10.93;;;3.03;;
64615;SDS011;51027;42.162;24.754;2022-10-31T08:00:03;10.32;;;3.55;;
64615;SDS011;51027;42.162;24.754;2022-10-31T08:02:31;9.70;;;3.30;;
64615;SDS011;51027;42.162;24.754;2022-10-31T08:04:57;9.35;;;2.88;;
64615;SDS011;51027;42.162;24.754;2022-10-31T08:07:22;10.10;;;3.20;;
64615;SDS011;51027;42.162;24.754;2022-10-31T08:09:48;12.02;;;3.60;;
64615;SDS011;51027;42.162;24.754;2022-10-31T08:12:13;10.75;;;3.13;;
64615;SDS011;51027;42.162;24.754;2022-10-31T08:14:39;14.77;;;3.30;;
64615;SDS011;51027;42.162;24.754;2022-10-31T08:17:04;10.43;;;3.53;;
64615;SDS011;51027;42.162;24.754;2022-10-31T08:19:29;14.52;;;3.60;;
64615;SDS011;51027;42.162;24.754;2022-10-31T08:21:55;10.85;;;3.20;;
64615;SDS011;51027;42.162;24.754;2022-10-31T08:24:20;10.05;;;3.53;;
64615;SDS011;51027;42.162;24.754;2022-10-31T08:26:46;16.55;;;3.97;;
64615;SDS011;51027;42.162;24.754;2022-10-31T08:29:12;11.23;;;3.83;;
64615;SDS011;51027;42.162;24.754;2022-10-31T08:31:38;13.93;;;4.22;;
64615;SDS011;51027;42.162;24.754;2022-10-31T08:34:03;9.48;;;3.40;;
64615;SDS011;51027;42.162;24.754;2022-10-31T08:36:29;13.05;;;3.45;;
64615;SDS011;51027;42.162;24.754;2022-10-31T08:38:54;12.82;;;3.58;;
64615;SDS011;51027;42.162;24.754;2022-10-31T08:41:20;9.90;;;3.28;;
64615;SDS011;51027;42.162;24.754;2022-10-31T08:43:46;9.82;;;3.38;;
64615;SDS011;51027;42.162;24.754;2022-10-31T08:46:12;14.52;;;3.65;;
64615;SDS011;51027;42.162;24.754;2022-10-31T08:48:37;12.07;;;3.38;;
64615;SDS011;51027;42.162;24.754;2022-10-31T08:51:03;9.95;;;3.25;;
64615;SDS011;51027;42.162;24.754;2022-10-31T08:53:28;11.98;;;3.33;;
64615;SDS011;51027;42.162;24.754;2022-10-31T08:55:54;13.80;;;3.45;;
64615;SDS011;51027;42.162;24.754;2022-10-31T08:58:21;10.73;;;3.55;;
64615;SDS011;51027;42.162;24.754;2022-10-31T09:00:48;9.23;;;3.25;;
64615;SDS011;51027;42.162;24.754;2022-10-31T09:03:16;10.50;;;3.47;;
64615;SDS011;51027;42.162;24.754;2022-10-31T09:05:46;7.53;;;3.30;;
64615;SDS011;51027;42.162;24.754;2022-10-31T09:08:12;12.63;;;3.25;;
64615;SDS011;51027;42.162;24.754;2022-10-31T09:10:38;11.02;;;3.60;;
64615;SDS011;51027;42.162;24.754;2022-10-31T09:13:05;10.30;;;3.33;;
64615;SDS011;51027;42.162;24.754;2022-10-31T09:15:33;12.23;;;3.40;;
64615;SDS011;51027;42.162;24.754;2022-10-31T09:17:59;10.07;;;3.50;;
64615;SDS011;51027;42.162;24.754;2022-10-31T09:20:25;9.15;;;3.25;;
64615;SDS011;51027;42.162;24.754;2022-10-31T09:23:13;5.38;;;2.58;;
64615;SDS011;51027;42.162;24.754;2022-10-31T09:25:38;7.85;;;2.95;;
64615;SDS011;51027;42.162;24.754;2022-10-31T09:28:05;6.70;;;2.88;;
64615;SDS011;51027;42.162;24.754;2022-10-31T09:30:32;15.30;;;3.30;;
64615;SDS011;51027;42.162;24.754;2022-10-31T09:33:05;7.32;;;2.80;;
64615;SDS011;51027;42.162;24.754;2022-10-31T09:35:34;11.07;;;3.30;;
64615;SDS011;51027;42.162;24.754;2022-10-31T09:38:03;12.40;;;3.42;;
64615;SDS011;51027;42.162;24.754;2022-10-31T09:40:41;7.88;;;2.95;;
64615;SDS011;51027;42.162;24.754;2022-10-31T09:45:53;11.13;;;3.20;;
64615;SDS011;51027;42.162;24.754;2022-10-31T09:48:30;11.65;;;2.88;;
64615;SDS011;51027;42.162;24.754;2022-10-31T09:51:06;10.35;;;2.80;;
64615;SDS011;51027;42.162;24.754;2022-10-31T09:53:35;12.60;;;3.30;;
64615;SDS011;51027;42.162;24.754;2022-10-31T09:56:04;11.60;;;3.28;;
64615;SDS011;51027;42.162;24.754;2022-10-31T09:58:33;9.30;;;3.13;;
64615;SDS011;51027;42.162;24.754;2022-10-31T10:01:05;9.85;;;3.00;;
64615;SDS011;51027;42.162;24.754;2022-10-31T10:03:38;9.80;;;3.10;;
64615;SDS011;51027;42.162;24.754;2022-10-31T10:06:21;9.73;;;2.92;;
64615;SDS011;51027;42.162;24.754;2022-10-31T10:08:53;10.27;;;3.08;;
64615;SDS011;51027;42.162;24.754;2022-10-31T10:11:37;8.18;;;3.00;;
64615;SDS011;51027;42.162;24.754;2022-10-31T10:27:36;10.52;;;3.00;;
64615;SDS011;51027;42.162;24.754;2022-10-31T10:32:49;8.70;;;2.75;;
64615;SDS011;51027;42.162;24.754;2022-10-31T10:38:07;7.22;;;2.58;;
64615;SDS011;51027;42.162;24.754;2022-10-31T10:40:53;12.00;;;3.28;;
64615;SDS011;51027;42.162;24.754;2022-10-31T10:43:33;7.30;;;2.80;;
64615;SDS011;51027;42.162;24.754;2022-10-31T11:00:27;7.40;;;2.63;;
64615;SDS011;51027;42.162;24.754;2022-10-31T11:02:55;12.30;;;3.05;;
64615;SDS011;51027;42.162;24.754;2022-10-31T11:08:05;9.15;;;2.83;;
64615;SDS011;51027;42.162;24.754;2022-10-31T11:10:31;8.63;;;2.80;;
64615;SDS011;51027;42.162;24.754;2022-10-31T11:13:21;7.95;;;2.60;;
64615;SDS011;51027;42.162;24.754;2022-10-31T11:15:51;8.63;;;2.85;;
64615;SDS011;51027;42.162;24.754;2022-10-31T11:18:39;9.68;;;2.72;;
64615;SDS011;51027;42.162;24.754;2022-10-31T11:26:36;9.10;;;2.70;;
64615;SDS011;51027;42.162;24.754;2022-10-31T11:29:03;7.97;;;2.33;;
64615;SDS011;51027;42.162;24.754;2022-10-31T11:31:34;7.63;;;2.90;;
64615;SDS011;51027;42.162;24.754;2022-10-31T11:34:04;9.27;;;2.90;;
64615;SDS011;51027;42.162;24.754;2022-10-31T11:36:33;11.25;;;3.03;;
64615;SDS011;51027;42.162;24.754;2022-10-31T11:39:02;13.27;;;3.55;;
64615;SDS011;51027;42.162;24.754;2022-10-31T11:41:30;16.80;;;5.90;;
64615;SDS011;51027;42.162;24.754;2022-10-31T11:49:04;8.43;;;2.90;;
64615;SDS011;51027;42.162;24.754;2022-10-31T11:51:36;9.35;;;3.38;;
64615;SDS011;51027;42.162;24.754;2022-10-31T11:54:02;8.73;;;2.92;;
64615;SDS011;51027;42.162;24.754;2022-10-31T11:56:39;7.65;;;2.50;;
64615;SDS011;51027;42.162;24.754;2022-10-31T11:59:12;10.43;;;2.90;;
64615;SDS011;51027;42.162;24.754;2022-10-31T12:01:46;6.90;;;2.50;;
64615;SDS011;51027;42.162;24.754;2022-10-31T12:04:16;8.98;;;2.95;;
64615;SDS011;51027;42.162;24.754;2022-10-31T12:06:45;9.23;;;3.03;;
64615;SDS011;51027;42.162;24.754;2022-10-31T12:19:48;7.68;;;2.50;;
64615;SDS011;51027;42.162;24.754;2022-10-31T12:28:08;7.38;;;2.53;;
64615;SDS011;51027;42.162;24.754;2022-10-31T12:38:58;5.88;;;2.33;;
64615;SDS011;51027;42.162;24.754;2022-10-31T12:41:32;5.80;;;2.33;;
64615;SDS011;51027;42.162;24.754;2022-10-31T12:49:27;6.55;;;2.45;;
64615;SDS011;51027;42.162;24.754;2022-10-31T13:00:04;8.60;;;2.35;;
64615;SDS011;51027;42.162;24.754;2022-10-31T13:02:46;7.97;;;3.35;;
64615;SDS011;51027;42.162;24.754;2022-10-31T13:05:29;5.50;;;2.20;;
64615;SDS011;51027;42.162;24.754;2022-10-31T13:10:22;6.88;;;2.58;;
64615;SDS011;51027;42.162;24.754;2022-10-31T13:12:54;8.18;;;2.95;;
64615;SDS011;51027;42.162;24.754;2022-10-31T13:15:29;14.30;;;4.97;;
64615;SDS011;51027;42.162;24.754;2022-10-31T13:18:03;8.05;;;2.67;;
64615;SDS011;51027;42.162;24.754;2022-10-31T13:20:43;6.53;;;2.47;;
64615;SDS011;51027;42.162;24.754;2022-10-31T13:25:58;8.68;;;2.90;;
64615;SDS011;51027;42.162;24.754;2022-10-31T13:31:01;6.70;;;1.88;;
64615;SDS011;51027;42.162;24.754;2022-10-31T13:38:39;9.90;;;2.38;;
64615;SDS011;51027;42.162;24.754;2022-10-31T13:46:49;7.13;;;2.42;;
64615;SDS011;51027;42.162;24.754;2022-10-31T13:51:53;6.30;;;2.30;;
64615;SDS011;51027;42.162;24.754;2022-10-31T13:54:33;7.53;;;2.28;;
64615;SDS011;51027;42.162;24.754;2022-10-31T13:57:00;8.27;;;2.63;;
64615;SDS011;51027;42.162;24.754;2022-10-31T13:59:26;10.27;;;2.78;;
64615;SDS011;51027;42.162;24.754;2022-10-31T14:01:58;7.68;;;2.55;;
64615;SDS011;51027;42.162;24.754;2022-10-31T14:04:33;7.47;;;3.28;;
64615;SDS011;51027;42.162;24.754;2022-10-31T14:07:06;8.00;;;2.50;;
64615;SDS011;51027;42.162;24.754;2022-10-31T14:09:39;9.95;;;2.85;;
64615;SDS011;51027;42.162;24.754;2022-10-31T14:12:21;8.13;;;2.65;;
64615;SDS011;51027;42.162;24.754;2022-10-31T14:15:17;9.35;;;2.78;;
64615;SDS011;51027;42.162;24.754;2022-10-31T14:17:53;10.70;;;2.95;;
64615;SDS011;51027;42.162;24.754;2022-10-31T14:20:25;10.30;;;3.13;;
64615;SDS011;51027;42.162;24.754;2022-10-31T14:22:57;10.05;;;2.38;;
64615;SDS011;51027;42.162;24.754;2022-10-31T14:28:00;8.93;;;2.47;;
64615;SDS011;51027;42.162;24.754;2022-10-31T14:30:50;8.57;;;2.80;;
64615;SDS011;51027;42.162;24.754;2022-10-31T14:33:22;8.43;;;2.50;;
64615;SDS011;51027;42.162;24.754;2022-10-31T14:40:53;8.57;;;2.30;;
64615;SDS011;51027;42.162;24.754;2022-10-31T14:46:17;8.97;;;3.30;;
64615;SDS011;51027;42.162;24.754;2022-10-31T14:51:41;11.85;;;3.15;;
64615;SDS011;51027;42.162;24.754;2022-10-31T15:00:05;8.27;;;2.92;;
64615;SDS011;51027;42.162;24.754;2022-10-31T15:02:34;11.23;;;2.85;;
64615;SDS011;51027;42.162;24.754;2022-10-31T15:05:14;12.52;;;3.30;;
64615;SDS011;51027;42.162;24.754;2022-10-31T15:10:30;14.18;;;3.30;;
64615;SDS011;51027;42.162;24.754;2022-10-31T15:13:10;11.88;;;3.00;;
64615;SDS011;51027;42.162;24.754;2022-10-31T15:15:44;16.83;;;3.65;;
64615;SDS011;51027;42.162;24.754;2022-10-31T15:18:28;11.23;;;3.72;;
64615;SDS011;51027;42.162;24.754;2022-10-31T15:20:54;15.27;;;4.13;;
64615;SDS011;51027;42.162;24.754;2022-10-31T15:23:23;21.77;;;6.95;;
64615;SDS011;51027;42.162;24.754;2022-10-31T15:26:00;20.98;;;4.50;;
64615;SDS011;51027;42.162;24.754;2022-10-31T15:28:26;15.60;;;5.20;;
64615;SDS011;51027;42.162;24.754;2022-10-31T15:30:53;18.33;;;3.80;;
64615;SDS011;51027;42.162;24.754;2022-10-31T15:33:27;10.80;;;3.13;;
64615;SDS011;51027;42.162;24.754;2022-10-31T15:35:54;13.38;;;3.50;;
64615;SDS011;51027;42.162;24.754;2022-10-31T15:38:25;10.52;;;3.08;;
64615;SDS011;51027;42.162;24.754;2022-10-31T15:40:52;15.55;;;3.70;;
64615;SDS011;51027;42.162;24.754;2022-10-31T15:43:32;13.67;;;3.23;;
64615;SDS011;51027;42.162;24.754;2022-10-31T15:46:02;8.98;;;2.97;;
64615;SDS011;51027;42.162;24.754;2022-10-31T15:48:29;13.63;;;3.17;;
64615;SDS011;51027;42.162;24.754;2022-10-31T15:50:59;15.57;;;4.25;;
64615;SDS011;51027;42.162;24.754;2022-10-31T15:53:29;13.93;;;3.20;;
64615;SDS011;51027;42.162;24.754;2022-10-31T15:56:07;10.32;;;3.10;;
64615;SDS011;51027;42.162;24.754;2022-10-31T15:58:57;12.18;;;3.70;;
64615;SDS011;51027;42.162;24.754;2022-10-31T16:01:24;14.27;;;3.35;;
64615;SDS011;51027;42.162;24.754;2022-10-31T16:03:58;15.27;;;3.90;;
64615;SDS011;51027;42.162;24.754;2022-10-31T16:06:44;16.15;;;3.38;;
64615;SDS011;51027;42.162;24.754;2022-10-31T16:09:21;17.75;;;4.07;;
64615;SDS011;51027;42.162;24.754;2022-10-31T16:11:48;11.10;;;3.75;;
64615;SDS011;51027;42.162;24.754;2022-10-31T16:14:18;21.17;;;4.15;;
64615;SDS011;51027;42.162;24.754;2022-10-31T16:16:49;17.40;;;4.43;;
64615;SDS011;51027;42.162;24.754;2022-10-31T16:20:04;14.63;;;5.15;;
64615;SDS011;51027;42.162;24.754;2022-10-31T16:22:19;18.02;;;4.72;;
64615;SDS011;51027;42.162;24.754;2022-10-31T16:24:55;14.48;;;4.55;;
64615;SDS011;51027;42.162;24.754;2022-10-31T16:27:50;15.27;;;3.78;;
64615;SDS011;51027;42.162;24.754;2022-10-31T16:33:03;12.27;;;3.42;;
64615;SDS011;51027;42.162;24.754;2022-10-31T16:35:33;16.95;;;3.78;;
64615;SDS011;51027;42.162;24.754;2022-10-31T16:38:00;13.38;;;3.70;;
64615;SDS011;51027;42.162;24.754;2022-10-31T16:40:26;14.02;;;3.92;;
64615;SDS011;51027;42.162;24.754;2022-10-31T16:42:52;14.57;;;4.07;;
64615;SDS011;51027;42.162;24.754;2022-10-31T16:45:20;20.83;;;6.50;;
64615;SDS011;51027;42.162;24.754;2022-10-31T16:47:47;19.90;;;5.28;;
64615;SDS011;51027;42.162;24.754;2022-10-31T16:50:25;16.50;;;4.70;;
64615;SDS011;51027;42.162;24.754;2022-10-31T16:52:52;16.83;;;4.88;;
64615;SDS011;51027;42.162;24.754;2022-10-31T16:55:18;16.52;;;5.32;;
64615;SDS011;51027;42.162;24.754;2022-10-31T16:57:46;13.20;;;4.28;;
64615;SDS011;51027;42.162;24.754;2022-10-31T17:00:16;12.80;;;3.97;;
64615;SDS011;51027;42.162;24.754;2022-10-31T17:05:11;19.48;;;7.95;;
64615;SDS011;51027;42.162;24.754;2022-10-31T17:07:38;23.50;;;7.45;;
64615;SDS011;51027;42.162;24.754;2022-10-31T17:10:04;15.68;;;5.18;;
64615;SDS011;51027;42.162;24.754;2022-10-31T17:12:30;14.18;;;5.15;;
64615;SDS011;51027;42.162;24.754;2022-10-31T17:14:56;19.30;;;5.65;;
64615;SDS011;51027;42.162;24.754;2022-10-31T17:17:23;20.58;;;6.18;;
64615;SDS011;51027;42.162;24.754;2022-10-31T17:19:48;19.10;;;7.18;;
64615;SDS011;51027;42.162;24.754;2022-10-31T17:22:14;18.40;;;5.90;;
64615;SDS011;51027;42.162;24.754;2022-10-31T17:24:39;17.02;;;6.22;;
64615;SDS011;51027;42.162;24.754;2022-10-31T17:27:05;20.10;;;6.47;;
64615;SDS011;51027;42.162;24.754;2022-10-31T17:29:30;15.23;;;5.82;;
64615;SDS011;51027;42.162;24.754;2022-10-31T17:31:58;19.83;;;6.18;;
64615;SDS011;51027;42.162;24.754;2022-10-31T17:34:24;20.75;;;7.05;;
64615;SDS011;51027;42.162;24.754;2022-10-31T17:36:50;16.52;;;5.72;;
64615;SDS011;51027;42.162;24.754;2022-10-31T17:39:17;17.80;;;5.85;;
64615;SDS011;51027;42.162;24.754;2022-10-31T17:41:43;16.92;;;5.78;;
64615;SDS011;51027;42.162;24.754;2022-10-31T17:44:09;17.83;;;6.07;;
64615;SDS011;51027;42.162;24.754;2022-10-31T17:46:35;21.73;;;6.10;;
64615;SDS011;51027;42.162;24.754;2022-10-31T17:49:01;17.00;;;6.00;;
64615;SDS011;51027;42.162;24.754;2022-10-31T17:51:29;19.92;;;6.28;;
64615;SDS011;51027;42.162;24.754;2022-10-31T17:53:56;22.85;;;6.97;;
64615;SDS011;51027;42.162;24.754;2022-10-31T17:56:22;15.75;;;6.25;;
64615;SDS011;51027;42.162;24.754;2022-10-31T17:58:48;18.92;;;6.05;;
64615;SDS011;51027;42.162;24.754;2022-10-31T18:01:14;18.85;;;6.03;;
64615;SDS011;51027;42.162;24.754;2022-10-31T18:03:40;17.75;;;6.13;;
64615;SDS011;51027;42.162;24.754;2022-10-31T18:06:06;18.60;;;7.25;;
64615;SDS011;51027;42.162;24.754;2022-10-31T18:08:33;23.23;;;7.80;;
64615;SDS011;51027;42.162;24.754;2022-10-31T18:11:04;22.70;;;8.70;;
64615;SDS011;51027;42.162;24.754;2022-10-31T18:13:34;25.10;;;9.32;;
64615;SDS011;51027;42.162;24.754;2022-10-31T18:16:00;31.92;;;13.65;;
64615;SDS011;51027;42.162;24.754;2022-10-31T18:18:26;31.05;;;12.38;;
64615;SDS011;51027;42.162;24.754;2022-10-31T18:20:55;29.58;;;11.35;;
64615;SDS011;51027;42.162;24.754;2022-10-31T18:23:21;34.05;;;14.48;;
64615;SDS011;51027;42.162;24.754;2022-10-31T18:25:46;28.67;;;12.80;;
64615;SDS011;51027;42.162;24.754;2022-10-31T18:28:14;25.58;;;10.95;;
64615;SDS011;51027;42.162;24.754;2022-10-31T18:30:40;28.50;;;11.43;;
64615;SDS011;51027;42.162;24.754;2022-10-31T18:33:06;23.88;;;10.57;;
64615;SDS011;51027;42.162;24.754;2022-10-31T18:35:36;23.17;;;8.82;;
64615;SDS011;51027;42.162;24.754;2022-10-31T18:38:03;26.52;;;10.18;;
64615;SDS011;51027;42.162;24.754;2022-10-31T18:40:30;23.80;;;10.48;;
64615;SDS011;51027;42.162;24.754;2022-10-31T18:42:56;28.70;;;10.55;;
64615;SDS011;51027;42.162;24.754;2022-10-31T18:45:22;22.90;;;8.65;;
64615;SDS011;51027;42.162;24.754;2022-10-31T18:47:49;20.02;;;8.10;;
64615;SDS011;51027;42.162;24.754;2022-10-31T18:50:19;21.60;;;8.55;;
64615;SDS011;51027;42.162;24.754;2022-10-31T18:52:45;20.95;;;8.25;;
64615;SDS011;51027;42.162;24.754;2022-10-31T18:55:10;26.58;;;7.78;;
64615;SDS011;51027;42.162;24.754;2022-10-31T18:57:36;20.17;;;8.52;;
64615;SDS011;51027;42.162;24.754;2022-10-31T19:00:04;22.27;;;7.88;;
64615;SDS011;51027;42.162;24.754;2022-10-31T19:02:30;23.45;;;9.68;;
64615;SDS011;51027;42.162;24.754;2022-10-31T19:04:59;24.73;;;7.55;;
64615;SDS011;51027;42.162;24.754;2022-10-31T19:07:25;19.25;;;7.78;;
64615;SDS011;51027;42.162;24.754;2022-10-31T19:09:50;21.42;;;8.02;;
64615;SDS011;51027;42.162;24.754;2022-10-31T19:12:16;20.92;;;7.30;;
64615;SDS011;51027;42.162;24.754;2022-10-31T19:14:41;22.13;;;8.30;;